Airfield :
LOGIN :

Register | Disclaimer

   EN    FR    IT 

 










Legend :    VFR   Marginal VFR   IFR   Intensive IFR   Very Intensive IFR
Visi :
Ceiling :
>= 8 km
>= 3000ft
5 to 8 km
1000 to 3000 ft
1500m to 5 km
500 to 1000 ft
800 to 1500m
200 to 500 ft
< 800m
< 200 ft
Symbols :   Thunderstorms  Fog  Heavy snow  Heavy precipitations  Wind > 20 kt
SIGMETs :     Misc.  Thunderstorms  Icing  Turbulence  Mountain Waves  Volcanic Ashes






- Airport Elevation : 1247 ft
- IATA code : PRG


LKPR - Praha Ruzyne

CURRENT METAR :
  • 042108Z 36008KT 4200 RA BR OVC004 04/04 Q1014 RMK REG QNH 1010

EXPIRED METARs :
  • 042100Z 02011KT 5000 -RA BR SCT003 BKN006 04/04 Q1013 TEMPO 2500 RA
  • 042052Z 02010KT 4000 -RA BR FEW002 BKN004 OVC008 04/04 Q1013 RMK REG QNH 1010
  • 042036Z 02011KT 1800 R24/1900U R30/1000U BR BKN002 OVC004 05/04 Q1013 RMK REG QNH 1010
  • 042020Z 35006KT 0500 R24/0450D R30/P2000N FG SCT001 OVC009 06/05 Q1013 RMK REG QNH 1010
  • 042000Z 28001KT 2500 -RA BR BKN019 06/05 Q1013 TEMPO RA
  • 041948Z VRB02KT 2800 BR FEW010 BKN029 06/05 Q1013 RMK REG QNH 1010
  • 041930Z 16002KT 4000 BR FEW005 BKN045 06/05 Q1013 TEMPO BKN007
  • 041906Z 11003KT 080V140 4000 -SHRA BR FEW010 BKN038 06/05 Q1013 RMK REG QNH 1010
  • 041900Z VRB01KT 2500 SHRA BR SCT010 BKN033 06/05 Q1014 BECMG 3500 -SHRA BR
  • 041846Z VRB02KT 2900 SHRA BR FEW010 BKN029 06/05 Q1014 RMK REG QNH 1010
  • 041830Z 28003KT 4600 -SHRA BR SCT020 BKN024 06/05 Q1014 TEMPO BKN017

TAF AMD TAF LKPR
Valid from the 04 at 20:00 until the 06 at 00:00 UTC


042045Z 0420/0600 36008KT 4000 BR OVC015
TEMPO 0420/0423 1500 RA BR BKN007
PROB30
TEMPO 0420/0422 0400 BCFG BKN001
TEMPO 0423/0507 1200 SN BKN007
PROB30
TEMPO 0423/0503 0700 +SN BKN002 OVC010
BECMG 0507/0509 01014KT 9999 BKN025
TEMPO 0509/0518 01014G26KT



MET'MAP, your aeronautical weather chart ! - Copyright ORBIFLY December 2007 - Disclaimer

ORBIFLY MET'MAP TEAM :

Programming & Development : Alexandra Zaïnal
Concept & original design : Baudouin d'Aumeries
Assistance for programming : Marc-Olivier Méhu
Technical & hardware support : Manuel Goepfert

Contact : metmap@orbifly.com




SOURCES & CREDITS :

   NOAA